This is the latest recevied weather packets stored in our database for station/object KC1HBM. If no packets are shown the sender has not sent any weather packets the latest 10 day(s).
| Time | Temp. | Humidity | Pressure | Rain* | Wind** | Luminosity | Snow |
|---|---|---|---|---|---|---|---|
| 1777901076 | 13.33° C | 59% | 1006 hPa | 0 mm | - | 124 W/m² | - |
| 1777900773 | 13.33° C | 60% | 1006 hPa | 0 mm | - | 163 W/m² | - |
| 1777900471 | 13.33° C | 60% | 1006.1 hPa | 0 mm | - | 184 W/m² | - |
| 1777900167 | 13.33° C | 61% | 1005.9 hPa | 0 mm | - | 168 W/m² | - |
| 1777899864 | 12.78° C | 61% | 1006.2 hPa | 0 mm | - | 216 W/m² | - |
| 1777899561 | 12.78° C | 61% | 1006.3 hPa | 0 mm | - | 177 W/m² | - |
| 1777899258 | 13.89° C | 59% | 1006.2 hPa | 0 mm | - | 180 W/m² | - |
| 1777898956 | 13.89° C | 58% | 1006.3 hPa | 0 mm | - | 347 W/m² | - |
| 1777898653 | 12.78° C | 61% | 1006.4 hPa | 0 mm | - | 336 W/m² | - |
| 1777898350 | 11.11° C | 64% | 1006.5 hPa | 0 mm | - | 332 W/m² | - |
| 1777898048 | 10.56° C | 67% | 1006.5 hPa | 0 mm | - | 64 W/m² | - |
| 1777897743 | 10° C | 68% | 1006.5 hPa | 0 mm | - | 66 W/m² | - |
| 1777897440 | 10° C | 67% | 1006.4 hPa | 0 mm | - | 45 W/m² | - |
| 1777897136 | 10° C | 67% | 1006.5 hPa | 0 mm | - | 29 W/m² | - |
| 1777896832 | 10° C | 66% | 1006.5 hPa | 0 mm | - | 33 W/m² | - |
| 1777896530 | 10.56° C | 66% | 1006.7 hPa | 0 mm | - | 32 W/m² | - |
| 1777896227 | 10.56° C | 65% | 1006.8 hPa | 0 mm | - | 31 W/m² | - |
| 1777895924 | 10.56° C | 66% | 1006.9 hPa | 0 mm | - | 36 W/m² | - |
| 1777895622 | 10.56° C | 64% | 1006.7 hPa | 0 mm | - | 42 W/m² | - |
| 1777895319 | 11.67° C | 62% | 1006.7 hPa | 0 mm | - | 89 W/m² | - |
| 1777895017 | 11.67° C | 60% | 1006.7 hPa | 0 mm | - | 229 W/m² | - |
| 1777894714 | 10.56° C | 62% | 1006.9 hPa | 0 mm | - | 127 W/m² | - |
| 1777894410 | 10.56° C | 62% | 1006.6 hPa | 0 mm | - | 96 W/m² | - |
| 1777894108 | 12.22° C | 60% | 1006.8 hPa | 0 mm | - | 79 W/m² | - |
| 1777893805 | 11.11° C | 59% | 1006.7 hPa | 0 mm | - | 144 W/m² | - |
* Rain latest hour (hover to see other rain measurements)
** Current wind speed in m/s (hover to see current wind gust speed)